Time;durP1;ratioP1;P1;durP2;ratioP2;P2;SDS_P1;SDS_P2;PMS_P1;PMS_P2;Temp;Humidity;BMP_temperature;BMP_pressure;BME280_temperature;BME280_humidity;BME280_pressure;Samples;Min_cycle;Max_cycle;Signal;HPM_P1;HPM_P2
2023/11/28 00:01:16;;;;;;;7.10;4.10;;;;;;;-4.42;100.00;99505.88;104953;1262;61072;-53
2023/11/28 00:03:44;;;;;;;8.70;4.00;;;;;;;-4.41;100.00;99507.15;104957;1263;60045;-53
2023/11/28 00:06:17;;;;;;;8.70;4.60;;;;;;;-4.37;100.00;99515.22;105011;1263;73118;-54
2023/11/28 00:08:45;;;;;;;11.60;5.20;;;;;;;-4.34;100.00;99515.32;105031;1267;65665;-53
2023/11/28 00:11:20;;;;;;;9.70;4.70;;;;;;;-4.29;100.00;99520.90;105731;1254;72679;-55
2023/11/28 00:13:48;;;;;;;7.80;4.20;;;;;;;-4.25;100.00;99524.88;105645;1256;60930;-53
2023/11/28 00:16:17;;;;;;;8.30;4.50;;;;;;;-4.27;100.00;99530.29;105704;1256;59652;-53
2023/11/28 00:18:44;;;;;;;6.40;3.90;;;;;;;-4.22;100.00;99531.46;105477;1259;73092;-53
2023/11/28 00:21:13;;;;;;;7.50;3.80;;;;;;;-4.15;100.00;99532.85;105571;1254;65959;-53
2023/11/28 00:23:41;;;;;;;6.70;4.40;;;;;;;-4.05;100.00;99536.02;105517;1254;72672;-52
2023/11/28 00:26:09;;;;;;;7.80;4.80;;;;;;;-3.96;100.00;99537.26;105540;1256;59752;-53
2023/11/28 00:28:39;;;;;;;6.90;4.40;;;;;;;-3.87;100.00;99538.15;105346;1254;60151;-53
2023/11/28 00:31:07;;;;;;;8.20;4.90;;;;;;;-3.81;100.00;99541.98;105325;1259;73072;-54
2023/11/28 00:33:35;;;;;;;9.20;4.70;;;;;;;-3.77;100.00;99538.27;105660;1254;67053;-54
2023/11/28 00:36:04;;;;;;;8.10;5.00;;;;;;;-3.73;100.00;99542.75;105415;1254;72705;-53
2023/11/28 00:38:32;;;;;;;6.70;4.00;;;;;;;-3.70;100.00;99546.94;105509;1254;60903;-55
2023/11/28 00:40:59;;;;;;;7.80;4.30;;;;;;;-3.66;100.00;99550.80;105435;1259;59730;-55
2023/11/28 00:43:27;;;;;;;8.70;4.70;;;;;;;-3.65;100.00;99552.39;105567;1254;72785;-52
2023/11/28 00:45:55;;;;;;;9.10;4.80;;;;;;;-3.65;100.00;99552.21;105402;1254;66055;-53
2023/11/28 00:48:23;;;;;;;8.80;4.70;;;;;;;-3.63;100.00;99555.00;105563;1256;71439;-52
2023/11/28 00:50:51;;;;;;;7.70;4.50;;;;;;;-3.60;100.00;99556.48;105650;1259;60970;-54
2023/11/28 00:53:19;;;;;;;8.40;5.10;;;;;;;-3.59;100.00;99558.42;105250;1254;60074;-53
2023/11/28 00:55:47;;;;;;;7.60;4.50;;;;;;;-3.61;100.00;99558.55;105490;1255;73457;-53
2023/11/28 00:58:15;;;;;;;7.80;4.70;;;;;;;-3.64;100.00;99561.52;105468;1255;67019;-53
2023/11/28 01:00:43;;;;;;;9.30;5.20;;;;;;;-3.66;100.00;99558.58;105406;1259;71426;-55
2023/11/28 01:10:53;;;;;;;8.90;5.50;;;;;;;-3.84;100.00;99552.73;102367;1289;599637;-54
2023/11/28 01:13:21;;;;;;;8.70;4.10;;;;;;;-3.98;100.00;99550.48;105725;1257;61690;-55
2023/11/28 01:15:50;;;;;;;7.40;4.20;;;;;;;-4.11;100.00;99547.13;105815;1257;59801;-55
2023/11/28 01:18:18;;;;;;;8.70;4.50;;;;;;;-4.23;100.00;99543.02;105725;1255;72383;-53
2023/11/28 01:20:46;;;;;;;6.80;4.10;;;;;;;-4.34;100.00;99546.72;105790;1254;65658;-54
2023/11/28 01:23:13;;;;;;;9.40;5.20;;;;;;;-4.43;100.00;99544.27;105450;1254;72267;-53
2023/11/28 01:25:41;;;;;;;7.70;4.60;;;;;;;-4.49;100.00;99546.55;105537;1254;184399;-53
2023/11/28 01:28:09;;;;;;;9.80;4.40;;;;;;;-4.54;100.00;99550.48;105839;1255;60602;-53
2023/11/28 01:30:37;;;;;;;7.70;4.00;;;;;;;-4.60;100.00;99557.31;109486;1250;71002;-54
2023/11/28 01:33:05;;;;;;;9.10;4.50;;;;;;;-4.66;100.00;99557.52;109546;1251;67682;-54
2023/11/28 01:35:33;;;;;;;8.70;5.40;;;;;;;-4.70;100.00;99560.84;109475;1250;71411;-55
2023/11/28 01:38:01;;;;;;;9.20;5.20;;;;;;;-4.72;100.00;99560.31;109483;1254;59805;-55
2023/11/28 01:40:28;;;;;;;9.30;4.60;;;;;;;-4.73;100.00;99562.61;109515;1251;58770;-54
2023/11/28 01:42:56;;;;;;;8.10;4.20;;;;;;;-4.76;100.00;99560.42;109504;1250;73169;-54
2023/11/28 01:45:24;;;;;;;7.60;4.90;;;;;;;-4.78;100.00;99556.46;109518;1251;66969;-55
2023/11/28 01:47:54;;;;;;;9.10;5.30;;;;;;;-4.75;100.00;99559.70;109510;1251;71339;-54
2023/11/28 01:50:22;;;;;;;8.20;4.10;;;;;;;-4.73;100.00;99566.48;109446;1251;60981;-54
2023/11/28 01:52:50;;;;;;;8.40;4.50;;;;;;;-4.71;100.00;99567.34;109457;1251;58883;-55
2023/11/28 01:55:17;;;;;;;7.30;4.30;;;;;;;-4.70;100.00;99571.86;109520;1251;73105;-54
2023/11/28 01:57:45;;;;;;;7.40;4.20;;;;;;;-4.72;100.00;99576.40;109496;1251;65862;-54
2023/11/28 02:00:13;;;;;;;8.20;4.40;;;;;;;-4.76;100.00;99584.84;109463;1251;72730;-54
2023/11/28 02:02:41;;;;;;;7.00;4.30;;;;;;;-4.81;100.00;99587.20;109455;1250;59719;-54
2023/11/28 02:05:09;;;;;;;8.10;4.60;;;;;;;-4.87;100.00;99592.97;109472;1251;58907;-54
2023/11/28 02:07:37;;;;;;;7.80;4.20;;;;;;;-4.92;100.00;99594.34;109523;1250;72374;-54
2023/11/28 02:10:05;;;;;;;7.40;4.50;;;;;;;-4.94;100.00;99594.15;109524;1250;65832;-55
2023/11/28 02:12:32;;;;;;;6.40;3.90;;;;;;;-4.94;100.00;99598.40;109487;1251;71444;-55
2023/11/28 02:15:00;;;;;;;7.40;4.10;;;;;;;-4.94;100.00;99596.20;109472;1251;61740;-54
2023/11/28 02:17:28;;;;;;;7.70;4.50;;;;;;;-4.94;100.00;99599.86;109461;1251;60079;-54
2023/11/28 02:19:57;;;;;;;8.80;4.60;;;;;;;-4.89;100.00;99598.23;109530;1250;71748;-55
2023/11/28 02:22:25;;;;;;;9.40;5.60;;;;;;;-4.85;100.00;99598.15;109534;1251;66845;-55
2023/11/28 02:24:54;;;;;;;8.60;5.10;;;;;;;-4.84;100.00;99596.19;109467;1253;70419;-55
2023/11/28 02:27:22;;;;;;;7.00;4.10;;;;;;;-4.79;100.00;99602.13;109478;1251;60434;-54
2023/11/28 02:29:49;;;;;;;7.20;4.00;;;;;;;-4.76;100.00;99607.55;109507;1251;60141;-54
2023/11/28 02:32:17;;;;;;;7.00;4.40;;;;;;;-4.73;100.00;99609.36;109478;1251;73125;-54
2023/11/28 02:34:45;;;;;;;6.70;4.10;;;;;;;-4.74;100.00;99611.64;109451;1251;66978;-54
2023/11/28 02:37:12;;;;;;;7.90;5.40;;;;;;;-4.76;100.00;99618.90;109452;1251;71833;-54
2023/11/28 02:39:40;;;;;;;7.60;4.60;;;;;;;-4.77;100.00;99623.02;109468;1251;59636;-54
2023/11/28 02:42:08;;;;;;;10.70;5.70;;;;;;;-4.79;100.00;99630.74;109479;1251;58676;-55
2023/11/28 02:44:36;;;;;;;8.30;4.40;;;;;;;-4.81;100.00;99634.00;109511;1251;71791;-56
2023/11/28 02:47:03;;;;;;;7.80;3.90;;;;;;;-4.87;100.00;99638.76;109466;1251;66934;-56
2023/11/28 02:49:31;;;;;;;8.10;4.90;;;;;;;-4.91;100.00;99636.01;109486;1253;72686;-54
2023/11/28 02:51:59;;;;;;;8.80;5.10;;;;;;;-4.94;100.00;99634.48;109478;1251;60095;-54
2023/11/28 02:54:26;;;;;;;7.90;4.40;;;;;;;-5.00;100.00;99641.64;109492;1251;60089;-55
2023/11/28 02:56:54;;;;;;;6.20;3.70;;;;;;;-5.05;100.00;99647.59;109495;1251;72433;-56
2023/11/28 02:59:21;;;;;;;9.10;4.50;;;;;;;-5.09;100.00;99650.36;109494;1250;65662;-54
2023/11/28 03:01:53;;;;;;;8.20;4.70;;;;;;;-5.11;100.00;99657.06;109459;1251;71423;-52
2023/11/28 03:04:22;;;;;;;10.80;5.80;;;;;;;-5.10;100.00;99658.23;109486;1251;61751;-53
2023/11/28 03:06:50;;;;;;;9.10;4.50;;;;;;;-5.08;100.00;99658.77;109459;1251;58807;-54
2023/11/28 03:09:17;;;;;;;8.60;4.90;;;;;;;-5.06;100.00;99657.13;109476;1250;72238;-53
2023/11/28 03:11:45;;;;;;;9.40;5.10;;;;;;;-5.04;100.00;99662.71;109503;1251;65857;-53
2023/11/28 03:14:13;;;;;;;8.50;5.10;;;;;;;-4.98;100.00;99662.17;109519;1251;71407;-53
2023/11/28 03:16:40;;;;;;;10.50;5.40;;;;;;;-4.92;100.00;99669.45;109440;1251;59673;-53
2023/11/28 03:19:09;;;;;;;7.90;4.20;;;;;;;-4.89;100.00;99673.64;109525;1251;60067;-53
2023/11/28 03:21:39;;;;;;;8.50;4.60;;;;;;;-4.88;100.00;99677.48;109505;1250;71841;-53
2023/11/28 03:24:07;;;;;;;10.90;5.50;;;;;;;-4.90;100.00;99682.34;109476;1251;67374;-53
2023/11/28 03:26:35;;;;;;;9.70;5.70;;;;;;;-4.93;100.00;99688.61;109457;1252;71616;-54
2023/11/28 03:29:03;;;;;;;9.00;5.10;;;;;;;-4.96;100.00;99694.05;109449;1251;61734;-53
2023/11/28 03:31:32;;;;;;;12.10;5.70;;;;;;;-4.97;100.00;99697.02;109500;1251;60150;-53
2023/11/28 03:34:00;;;;;;;10.40;5.80;;;;;;;-4.99;100.00;99699.35;109469;1251;72435;-53
2023/11/28 03:36:27;;;;;;;10.80;6.50;;;;;;;-5.00;100.00;99702.44;109489;1250;65528;-53
2023/11/28 03:38:55;;;;;;;10.90;6.60;;;;;;;-5.00;100.00;99705.17;109453;1251;72739;-53
2023/11/28 03:41:23;;;;;;;8.20;5.10;;;;;;;-4.97;100.00;99709.89;109489;1251;60421;-53
2023/11/28 03:43:50;;;;;;;10.00;5.60;;;;;;;-4.96;100.00;99715.26;109464;1250;58800;-54
2023/11/28 03:46:18;;;;;;;11.90;7.00;;;;;;;-4.94;100.00;99718.36;109516;1251;71785;-53
2023/11/28 03:48:46;;;;;;;10.50;5.80;;;;;;;-4.95;100.00;99728.39;109482;1251;65689;-55
2023/11/28 03:51:13;;;;;;;9.50;6.00;;;;;;;-4.97;100.00;99733.59;109440;1251;71435;-54
2023/11/28 03:53:41;;;;;;;9.20;5.30;;;;;;;-4.95;100.00;99747.90;109509;1251;61680;-53
2023/11/28 03:56:09;;;;;;;9.90;5.70;;;;;;;-4.90;100.00;99751.64;109472;1250;60200;-53
2023/11/28 03:58:37;;;;;;;10.70;5.80;;;;;;;-4.87;100.00;99757.60;109453;1251;71738;-53
2023/11/28 04:01:04;;;;;;;9.40;5.00;;;;;;;-4.88;100.00;99762.70;109471;1253;66973;-55
2023/11/28 04:03:33;;;;;;;10.80;5.70;;;;;;;-4.87;100.00;99761.98;109475;1251;72783;-54
2023/11/28 04:06:01;;;;;;;11.30;6.10;;;;;;;-4.87;100.00;99764.67;109462;1253;61384;-53
2023/11/28 04:08:29;;;;;;;8.10;5.10;;;;;;;-4.88;100.00;99763.05;109458;1250;59734;-53
2023/11/28 04:10:56;;;;;;;11.90;5.80;;;;;;;-4.79;100.00;99771.83;109419;1251;73067;-54
2023/11/28 04:13:24;;;;;;;10.70;5.80;;;;;;;-4.79;100.00;99773.70;109491;1251;66127;-54
2023/11/28 04:15:52;;;;;;;9.50;5.70;;;;;;;-4.78;100.00;99778.33;109442;1251;72738;-54
2023/11/28 04:18:20;;;;;;;9.90;6.20;;;;;;;-4.76;100.00;99781.29;109447;1251;58015;-54
2023/11/28 04:20:49;;;;;;;11.00;6.10;;;;;;;-4.73;100.00;99782.06;109417;1251;60081;-54
2023/11/28 04:23:17;;;;;;;11.00;6.00;;;;;;;-4.66;100.00;99781.15;109520;1250;71851;-57
2023/11/28 04:25:45;;;;;;;10.00;5.50;;;;;;;-4.64;100.00;99787.30;109478;1250;66225;-54
2023/11/28 04:28:13;;;;;;;9.50;5.00;;;;;;;-4.62;100.00;99792.27;109415;1251;72640;-54
2023/11/28 04:30:40;;;;;;;9.50;4.90;;;;;;;-4.61;100.00;99796.47;109436;1253;59303;-54
2023/11/28 04:33:09;;;;;;;9.50;5.60;;;;;;;-4.61;100.00;99803.94;109418;1250;58791;-53
2023/11/28 04:35:38;;;;;;;8.90;5.40;;;;;;;-4.61;100.00;99808.67;109429;1251;73103;-53
2023/11/28 04:38:05;;;;;;;9.60;5.00;;;;;;;-4.60;100.00;99812.64;109445;1253;66881;-53
2023/11/28 04:40:33;;;;;;;11.80;6.90;;;;;;;-4.62;100.00;99810.74;109421;1252;72638;-56
2023/11/28 04:43:02;;;;;;;8.70;5.10;;;;;;;-4.65;100.00;99813.79;109419;1251;57950;-54
2023/11/28 04:45:29;;;;;;;10.70;5.30;;;;;;;-4.68;100.00;99821.29;109446;1251;60135;-54
2023/11/28 04:47:57;;;;;;;10.30;5.60;;;;;;;-4.70;100.00;99820.19;109553;1250;73239;-54
2023/11/28 04:50:24;;;;;;;8.60;5.40;;;;;;;-4.68;100.00;99827.07;109422;1251;66200;-54
2023/11/28 04:52:52;;;;;;;9.00;5.50;;;;;;;-4.68;100.00;99828.76;109446;1251;73313;-54
2023/11/28 04:55:20;;;;;;;8.70;5.50;;;;;;;-4.68;100.00;99835.67;109481;1250;60922;-54
2023/11/28 04:57:47;;;;;;;9.40;5.80;;;;;;;-4.67;100.00;99842.89;109540;1250;60081;-54
2023/11/28 05:00:15;;;;;;;10.60;5.00;;;;;;;-4.66;100.00;99851.81;109498;1251;71819;-54
2023/11/28 05:02:43;;;;;;;8.60;5.30;;;;;;;-4.64;100.00;99853.02;109474;1251;66121;-53
2023/11/28 05:05:11;;;;;;;8.80;4.90;;;;;;;-4.61;100.00;99855.97;109450;1251;72899;-54
2023/11/28 05:07:39;;;;;;;11.00;4.60;;;;;;;-4.57;100.00;99858.55;109418;1251;61458;-54
2023/11/28 05:10:08;;;;;;;8.30;4.70;;;;;;;-4.51;100.00;99860.74;109444;1251;59129;-54
2023/11/28 05:12:35;;;;;;;8.70;4.40;;;;;;;-4.42;100.00;99866.42;109435;1250;73137;-56
2023/11/28 05:15:04;;;;;;;8.00;4.10;;;;;;;-4.19;100.00;99875.52;109464;1251;65943;-54
2023/11/28 05:17:32;;;;;;;7.20;4.20;;;;;;;-3.87;100.00;99875.12;109409;1251;72674;-54
2023/11/28 05:20:01;;;;;;;7.40;4.00;;;;;;;-3.56;100.00;99877.95;109456;1251;61610;-54
2023/11/28 05:22:29;;;;;;;8.30;3.90;;;;;;;-3.24;100.00;99887.73;109445;1250;58868;-56
2023/11/28 05:24:57;;;;;;;6.50;3.90;;;;;;;-2.92;100.00;99885.22;109469;1251;73861;-54
2023/11/28 05:27:25;;;;;;;6.50;4.00;;;;;;;-2.59;100.00;99882.04;109505;1251;67164;-54
2023/11/28 05:29:52;;;;;;;6.60;3.70;;;;;;;-2.26;100.00;99887.20;109422;1253;72706;-54
2023/11/28 05:32:20;;;;;;;6.40;3.80;;;;;;;-1.93;100.00;99888.88;109477;1251;59642;-55
2023/11/28 05:34:48;;;;;;;5.90;3.70;;;;;;;-1.59;100.00;99893.22;109439;1251;60053;-54
2023/11/28 05:37:16;;;;;;;5.90;3.60;;;;;;;-1.23;100.00;99891.54;109439;1251;72430;-54
2023/11/28 05:39:44;;;;;;;6.70;4.00;;;;;;;-0.91;100.00;99892.98;109504;1251;65961;-55
2023/11/28 05:42:12;;;;;;;6.70;3.90;;;;;;;-0.64;100.00;99894.79;109412;1251;71405;-54
2023/11/28 05:44:39;;;;;;;7.30;4.10;;;;;;;-0.41;100.00;99893.35;109473;1251;58152;-56
2023/11/28 05:47:09;;;;;;;9.00;3.80;;;;;;;-0.14;100.00;99892.05;109461;1251;60068;-55
2023/11/28 05:49:37;;;;;;;7.70;4.00;;;;;;;0.17;100.00;99891.58;109477;1250;73851;-55
2023/11/28 05:52:05;;;;;;;8.80;3.80;;;;;;;0.50;100.00;99885.50;109411;1251;66974;-55
2023/11/28 05:54:33;;;;;;;6.20;3.50;;;;;;;0.80;100.00;99885.36;109445;1250;71770;-55
2023/11/28 05:57:02;;;;;;;5.70;2.80;;;;;;;1.02;100.00;99881.23;109413;1251;58616;-55
2023/11/28 05:59:29;;;;;;;4.80;2.60;;;;;;;1.20;100.00;99876.64;109470;1251;59087;-55
2023/11/28 06:02:03;;;;;;;8.00;4.20;;;;;;;1.33;100.00;99867.66;109452;1251;72608;-55
2023/11/28 06:04:31;;;;;;;5.30;3.40;;;;;;;1.49;100.00;99858.01;109427;1250;66938;-55
2023/11/28 06:07:01;;;;;;;6.60;3.40;;;;;;;1.70;100.00;99852.17;109426;1251;73273;-55
2023/11/28 06:09:29;;;;;;;6.40;3.80;;;;;;;1.97;100.00;99851.49;109474;1251;58206;-55
2023/11/28 06:11:57;;;;;;;5.00;3.00;;;;;;;2.22;100.00;99849.27;109454;1251;58358;-55
2023/11/28 06:14:28;;;;;;;;;;;;;;;2.32;100.00;99843.41;109459;1251;73895;-57
2023/11/28 06:16:56;;;;;;;6.40;4.20;;;;;;;2.37;100.00;99840.69;109426;1250;67801;-55
2023/11/28 06:19:23;;;;;;;6.30;3.50;;;;;;;2.41;100.00;99837.78;109429;1251;72502;-54
2023/11/28 06:21:51;;;;;;;6.30;3.80;;;;;;;2.42;100.00;99840.42;109493;1251;61382;-55
2023/11/28 06:24:18;;;;;;;5.60;3.20;;;;;;;2.49;100.00;99845.29;109472;1251;58786;-54
2023/11/28 06:26:46;;;;;;;5.70;3.30;;;;;;;2.44;100.00;99856.70;109493;1251;72473;-57
2023/11/28 06:29:14;;;;;;;7.50;4.20;;;;;;;2.27;100.00;99862.22;109507;1250;65721;-54
2023/11/28 06:31:41;;;;;;;6.20;3.70;;;;;;;2.31;100.00;99869.51;109504;1251;72750;-54
2023/11/28 06:34:09;;;;;;;6.30;3.60;;;;;;;2.62;100.00;99871.89;109456;1251;61510;-54
2023/11/28 06:36:37;;;;;;;5.50;3.30;;;;;;;2.96;100.00;99876.23;109452;1251;58794;-54
2023/11/28 06:39:05;;;;;;;7.10;3.80;;;;;;;3.08;100.00;99883.48;109478;1251;73897;-55
2023/11/28 06:41:32;;;;;;;6.70;3.60;;;;;;;2.96;100.00;99885.48;109545;1251;66105;-55
2023/11/28 06:44:00;;;;;;;5.70;3.00;;;;;;;2.65;100.00;99887.05;109456;1251;72785;-55
2023/11/28 06:46:31;;;;;;;5.50;3.00;;;;;;;2.07;100.00;99885.73;109477;1251;58201;-54
2023/11/28 06:48:58;;;;;;;8.20;4.00;;;;;;;1.40;100.00;99891.83;109476;1251;60044;-53
2023/11/28 06:51:27;;;;;;;6.80;4.20;;;;;;;0.71;100.00;99899.43;109445;1251;72777;-54
2023/11/28 06:53:55;;;;;;;6.70;3.70;;;;;;;0.21;100.00;99904.10;109500;1250;66921;-53
2023/11/28 06:56:22;;;;;;;7.80;4.10;;;;;;;-0.13;100.00;99907.64;109448;1251;71354;-53
2023/11/28 06:58:51;;;;;;;8.20;4.00;;;;;;;-0.35;100.00;99911.48;109451;1250;59354;-54
2023/11/28 07:01:19;;;;;;;6.50;3.80;;;;;;;-0.57;100.00;99916.95;109462;1251;59017;-54
2023/11/28 07:03:46;;;;;;;7.10;3.40;;;;;;;-0.78;100.00;99927.41;109442;1251;72594;-53
2023/11/28 07:06:14;;;;;;;7.20;3.60;;;;;;;-0.92;100.00;99928.69;109483;1251;67028;-53
2023/11/28 07:08:42;;;;;;;6.70;3.90;;;;;;;-1.04;100.00;99934.25;109416;1251;72688;-53
2023/11/28 07:11:19;;;;;;;6.40;3.50;;;;;;;-1.13;100.00;99939.71;109472;1251;59228;-55
2023/11/28 07:13:47;;;;;;;7.00;4.10;;;;;;;-1.18;100.00;99945.04;109487;1250;58713;-59
2023/11/28 07:16:15;;;;;;;8.10;3.70;;;;;;;-1.17;100.00;99947.02;109517;1250;73977;-55
2023/11/28 07:18:44;;;;;;;7.80;4.40;;;;;;;-1.13;100.00;99950.82;109429;1251;65956;-53
2023/11/28 07:21:11;;;;;;;9.60;4.80;;;;;;;-1.08;100.00;99952.41;109449;1251;71639;-54
2023/11/28 07:23:39;;;;;;;7.30;4.50;;;;;;;-1.04;100.00;99956.88;109483;1250;59304;-54
2023/11/28 07:26:07;;;;;;;7.50;3.80;;;;;;;-1.03;100.00;99953.73;109477;1251;59092;-53
2023/11/28 07:28:35;;;;;;;9.90;4.80;;;;;;;-1.02;100.00;99958.64;109464;1251;74399;-54
2023/11/28 07:31:03;;;;;;;10.50;5.30;;;;;;;-0.99;100.00;99956.38;109479;1251;65683;-54
2023/11/28 07:33:30;;;;;;;8.60;5.20;;;;;;;-0.94;100.00;99961.48;109483;1253;72797;-53
2023/11/28 07:35:58;;;;;;;10.10;4.90;;;;;;;-0.92;100.00;99959.39;109470;1251;60929;-54
2023/11/28 07:38:26;;;;;;;8.30;5.10;;;;;;;-0.88;100.00;99963.23;109422;1250;62260;-54
2023/11/28 07:40:54;;;;;;;8.80;4.80;;;;;;;-0.87;100.00;99962.92;109485;1251;72541;-53
2023/11/28 07:43:23;;;;;;;8.40;4.90;;;;;;;-0.85;100.00;99963.13;109483;1251;66178;-54
2023/11/28 07:45:51;;;;;;;7.80;4.80;;;;;;;-0.83;100.00;99968.27;109452;1251;71370;-54
2023/11/28 07:48:18;;;;;;;9.60;4.20;;;;;;;-0.81;100.00;99964.84;109432;1251;59643;-53
2023/11/28 07:50:46;;;;;;;8.30;4.80;;;;;;;-0.79;100.00;99962.02;109459;1251;60923;-54
2023/11/28 07:53:14;;;;;;;8.90;4.30;;;;;;;-0.78;100.00;99964.61;109501;1251;72654;-54
2023/11/28 07:55:41;;;;;;;7.30;4.50;;;;;;;-0.73;100.00;99964.44;109481;1251;66936;-54
2023/11/28 07:58:09;;;;;;;9.30;4.20;;;;;;;-0.64;100.00;99968.72;109475;1251;72875;-55
2023/11/28 08:00:37;;;;;;;7.10;4.40;;;;;;;-0.55;100.00;99963.95;109502;1251;59333;-55
2023/11/28 08:03:04;;;;;;;7.80;4.30;;;;;;;-0.46;100.00;99964.23;109537;1251;60091;-55
2023/11/28 08:05:32;;;;;;;7.00;4.60;;;;;;;-0.37;100.00;99965.89;109520;1250;74044;-55
2023/11/28 08:08:00;;;;;;;7.90;4.30;;;;;;;-0.27;100.00;99966.52;109461;1251;67444;-55
2023/11/28 08:10:28;;;;;;;8.20;4.00;;;;;;;-0.18;100.00;99968.73;109467;1251;73576;-55
2023/11/28 08:12:55;;;;;;;8.40;4.10;;;;;;;-0.13;100.00;99972.90;109470;1251;58155;-55
2023/11/28 08:15:23;;;;;;;8.90;5.40;;;;;;;-0.09;100.00;99974.34;109505;1251;58790;-55
2023/11/28 08:17:50;;;;;;;8.50;4.90;;;;;;;-0.06;100.00;99974.06;109475;1251;73827;-55
2023/11/28 08:20:18;;;;;;;8.20;4.60;;;;;;;-0.00;100.00;99968.31;109497;1251;67422;-55
2023/11/28 08:22:46;;;;;;;7.00;4.00;;;;;;;0.07;100.00;99964.11;109496;1251;71422;-55
2023/11/28 08:25:13;;;;;;;8.50;4.80;;;;;;;0.16;100.00;99966.19;109494;1251;58183;-55
2023/11/28 08:27:41;;;;;;;8.20;4.30;;;;;;;0.26;100.00;99969.79;109478;1250;58823;-55
2023/11/28 08:30:10;;;;;;;6.50;3.70;;;;;;;0.39;100.00;99970.83;109473;1251;73902;-58
2023/11/28 08:32:38;;;;;;;7.30;3.80;;;;;;;0.52;100.00;99967.67;109510;1251;65596;-55
2023/11/28 08:35:07;;;;;;;6.10;3.70;;;;;;;0.64;100.00;99966.16;109527;1251;75381;-55
2023/11/28 08:37:35;;;;;;;6.90;4.20;;;;;;;0.74;100.00;99965.86;109462;1251;58305;-55
2023/11/28 08:40:03;;;;;;;6.70;3.60;;;;;;;0.90;100.00;99965.88;109520;1251;58788;-57
2023/11/28 08:42:30;;;;;;;6.20;3.20;;;;;;;1.07;100.00;99963.32;109432;1253;73118;-56
2023/11/28 08:44:59;;;;;;;6.50;3.80;;;;;;;1.27;100.00;99956.34;109578;1251;67036;-57
2023/11/28 08:47:26;;;;;;;5.60;3.20;;;;;;;1.53;100.00;99944.13;109493;1250;71775;-56
2023/11/28 08:49:54;;;;;;;6.70;3.80;;;;;;;1.80;100.00;99942.33;109468;1251;58233;-56
2023/11/28 08:52:23;;;;;;;6.90;3.60;;;;;;;2.13;100.00;99937.35;109483;1251;58770;-58
2023/11/28 08:54:51;;;;;;;5.80;3.10;;;;;;;2.58;100.00;99930.75;109491;1250;73909;-56
2023/11/28 08:57:19;;;;;;;7.00;3.90;;;;;;;3.05;100.00;99928.29;109506;1251;66070;-57
2023/11/28 08:59:46;;;;;;;5.80;3.30;;;;;;;3.46;100.00;99926.00;109490;1251;71500;-56
2023/11/28 09:02:14;;;;;;;6.10;3.50;;;;;;;3.74;100.00;99920.14;109504;1251;59318;-59
2023/11/28 09:04:42;;;;;;;10.00;4.10;;;;;;;3.94;100.00;99913.64;109467;1251;60049;-56
2023/11/28 09:07:09;;;;;;;6.40;3.70;;;;;;;4.15;100.00;99908.13;109540;1251;73935;-56
2023/11/28 09:09:37;;;;;;;5.80;3.80;;;;;;;4.35;100.00;99902.79;109541;1250;66956;-55
2023/11/28 09:12:05;;;;;;;5.40;3.20;;;;;;;4.47;100.00;99897.91;109487;1251;72714;-57
2023/11/28 09:14:32;;;;;;;6.70;3.90;;;;;;;4.48;100.00;99901.85;109463;1251;59728;-56
2023/11/28 09:17:17;;;;;;;5.30;3.30;;;;;;;4.49;100.00;99902.43;109479;1251;59375;-56
2023/11/28 09:19:44;;;;;;;5.90;3.00;;;;;;;4.49;100.00;99901.75;109496;1251;73897;-56
2023/11/28 09:22:12;;;;;;;7.60;3.60;;;;;;;4.59;100.00;99902.39;109457;1251;68051;-56
2023/11/28 09:24:40;;;;;;;6.10;3.10;;;;;;;4.70;100.00;99901.87;109446;1253;71484;-56
2023/11/28 09:27:10;;;;;;;6.00;3.30;;;;;;;4.79;100.00;99902.01;109448;1251;58366;-56
2023/11/28 09:29:38;;;;;;;6.30;3.10;;;;;;;4.83;100.00;99899.16;109481;1251;60557;-56
2023/11/28 09:32:06;;;;;;;6.00;3.90;;;;;;;4.81;100.00;99898.83;109436;1251;73930;-56
2023/11/28 09:34:33;;;;;;;8.80;5.10;;;;;;;4.78;100.00;99902.11;109507;1251;65814;-56
2023/11/28 09:37:01;;;;;;;10.10;5.00;;;;;;;4.80;100.00;99903.60;109512;1251;72791;-56
2023/11/28 09:39:29;;;;;;;7.90;4.80;;;;;;;4.83;100.00;99905.68;109450;1254;59323;-56
2023/11/28 09:41:58;;;;;;;6.20;3.70;;;;;;;4.82;100.00;99909.20;109444;1251;60642;-58
2023/11/28 09:44:28;;;;;;;29.10;12.90;;;;;;;4.90;100.00;99911.39;109508;1251;72544;-56
2023/11/28 09:46:56;;;;;;;13.00;6.70;;;;;;;4.91;100.00;99912.27;109446;1251;67094;-56
2023/11/28 09:49:24;;;;;;;6.30;3.30;;;;;;;5.00;100.00;99915.86;109495;1251;72741;-56
2023/11/28 09:51:53;;;;;;;6.30;3.40;;;;;;;5.09;100.00;99917.83;109439;1251;58128;-58
2023/11/28 09:54:21;;;;;;;6.10;3.10;;;;;;;5.18;100.00;99921.45;109337;1251;62534;-56
2023/11/28 09:56:48;;;;;;;5.90;2.90;;;;;;;5.28;100.00;99920.98;109351;1251;73843;-56
2023/11/28 09:59:16;;;;;;;5.30;3.00;;;;;;;5.33;100.00;99918.56;109447;1250;66808;-56
2023/11/28 10:01:44;;;;;;;11.20;5.70;;;;;;;5.38;100.00;99914.40;109465;1251;72692;-58
2023/11/28 10:04:12;;;;;;;6.70;3.90;;;;;;;5.42;100.00;99914.67;109468;1251;58415;-56
2023/11/28 10:06:42;;;;;;;5.00;3.20;;;;;;;5.40;100.00;99922.33;109511;1251;61989;-56
2023/11/28 10:09:10;;;;;;;6.60;2.90;;;;;;;5.43;100.00;99920.07;109484;1251;72542;-56
2023/11/28 10:11:38;;;;;;;5.30;3.20;;;;;;;5.47;100.00;99920.73;109548;1250;69359;-56
2023/11/28 10:14:07;;;;;;;5.70;2.80;;;;;;;5.45;98.90;99921.98;109292;1251;72772;-55
2023/11/28 10:16:46;;;;;;;5.10;3.00;;;;;;;5.34;97.22;99920.34;109471;1251;58213;-57
2023/11/28 10:19:14;;;;;;;5.20;2.70;;;;;;;5.26;93.28;99920.13;109487;1250;60122;-55
2023/11/28 10:21:42;;;;;;;4.40;2.70;;;;;;;5.09;89.72;99922.91;109485;1251;72930;-55
2023/11/28 10:24:10;;;;;;;7.80;4.70;;;;;;;4.95;88.99;99926.55;109464;1251;69684;-56
2023/11/28 10:26:38;;;;;;;8.10;3.80;;;;;;;4.91;92.55;99933.12;109498;1251;74854;-55
2023/11/28 10:29:06;;;;;;;6.00;3.60;;;;;;;4.96;94.81;99931.92;109480;1251;58183;-55
2023/11/28 10:31:36;;;;;;;8.20;4.50;;;;;;;5.03;96.89;99932.12;109470;1251;61062;-55
2023/11/28 10:34:08;;;;;;;8.00;4.30;;;;;;;5.06;97.66;99936.30;109470;1250;73786;-55
2023/11/28 10:36:42;;;;;;;9.50;4.20;;;;;;;5.09;94.66;99931.95;109503;1251;67774;-55
2023/11/28 10:39:18;;;;;;;7.40;3.90;;;;;;;5.09;94.11;99932.40;109494;1251;73090;-55
2023/11/28 10:41:45;;;;;;;5.00;3.20;;;;;;;5.11;92.66;99936.80;109429;1251;59680;-56
2023/11/28 10:44:13;;;;;;;4.60;2.70;;;;;;;5.19;94.55;99939.80;109499;1250;60403;-55
2023/11/28 10:46:41;;;;;;;5.20;2.60;;;;;;;5.27;92.35;99942.64;109532;1250;72626;-55
2023/11/28 10:49:09;;;;;;;5.20;2.60;;;;;;;5.30;90.32;99940.41;109502;1250;68460;-56
2023/11/28 10:51:37;;;;;;;5.00;2.80;;;;;;;5.23;82.83;99941.95;109447;1251;71421;-57
2023/11/28 10:54:08;;;;;;;7.40;3.30;;;;;;;5.07;82.00;99942.85;109481;1251;59330;-56
2023/11/28 10:56:39;;;;;;;12.60;5.40;;;;;;;5.00;83.35;99948.06;109500;1251;62134;-56
2023/11/28 10:59:11;;;;;;;5.30;3.20;;;;;;;4.98;81.73;99952.70;109519;1251;76950;-56
2023/11/28 11:01:43;;;;;;;5.40;3.20;;;;;;;4.92;82.31;99951.17;109463;1250;66381;-56
2023/11/28 11:04:11;;;;;;;6.80;3.30;;;;;;;4.83;81.11;99946.52;109437;1251;71466;-56
2023/11/28 11:06:40;;;;;;;6.50;3.00;;;;;;;4.71;80.69;99939.61;109453;1251;60286;-56
2023/11/28 11:22:13;;;;;;;5.70;3.10;;;;;;;4.39;88.56;99951.92;103131;1286;613052;-59
2023/11/28 11:24:43;;;;;;;4.90;2.90;;;;;;;4.33;92.06;99954.37;104923;1272;122140;-56
2023/11/28 11:27:10;;;;;;;6.50;3.10;;;;;;;4.27;92.37;99949.63;104916;1264;60094;-56
2023/11/28 11:29:40;;;;;;;4.90;2.60;;;;;;;4.14;91.78;99942.15;105002;1264;71044;-56
2023/11/28 11:32:12;;;;;;;6.20;3.70;;;;;;;3.96;92.70;99947.11;105136;1266;67994;-58
2023/11/28 11:34:40;;;;;;;5.90;3.30;;;;;;;3.77;95.00;99952.56;104969;1266;72760;-56
2023/11/28 11:37:09;;;;;;;5.30;3.00;;;;;;;3.65;98.77;99958.72;104949;1269;59304;-56
2023/11/28 11:39:38;;;;;;;6.40;3.60;;;;;;;3.57;100.00;99962.50;105010;1264;59810;-56
2023/11/28 11:42:11;;;;;;;7.40;3.40;;;;;;;3.50;100.00;99968.87;104811;1266;72787;-60
2023/11/28 11:44:52;;;;;;;6.70;2.90;;;;;;;3.46;100.00;99978.16;108694;1263;65518;-56